createdAt,value
2023-05-16T00:00:53.329Z,91.92
2023-05-16T00:03:21.053Z,92.52
2023-05-16T00:05:48.067Z,92.41
2023-05-16T00:08:14.596Z,92.43
2023-05-16T00:10:41.105Z,93.05
2023-05-16T00:13:07.630Z,93.00
2023-05-16T00:15:34.752Z,92.46
2023-05-16T00:18:01.340Z,92.56
2023-05-16T00:20:29.206Z,91.94
2023-05-16T00:22:55.902Z,92.09
2023-05-16T00:25:23.186Z,92.30
2023-05-16T00:27:49.673Z,92.37
2023-05-16T00:30:16.232Z,93.03
2023-05-16T00:32:43.270Z,92.90
2023-05-16T00:35:11.532Z,92.36
2023-05-16T00:37:38.964Z,91.96
2023-05-16T00:40:06.431Z,91.49
2023-05-16T00:42:33.070Z,91.76
2023-05-16T00:45:00.350Z,92.27
2023-05-16T00:47:26.867Z,91.68
2023-05-16T00:49:53.877Z,91.97
2023-05-16T00:52:20.536Z,91.62
2023-05-16T00:54:47.229Z,91.15
2023-05-16T00:57:13.770Z,91.56
2023-05-16T00:59:42.475Z,91.56
2023-05-16T01:02:08.942Z,91.29
2023-05-16T01:04:35.806Z,90.86
2023-05-16T01:07:02.670Z,90.99
2023-05-16T01:09:29.730Z,91.26
2023-05-16T01:12:01.831Z,90.51
2023-05-16T01:14:49.499Z,90.74
2023-05-16T01:17:34.342Z,90.72
2023-05-16T01:20:06.592Z,90.44
2023-05-16T01:22:52.685Z,91.04
2023-05-16T01:25:56.649Z,90.65
2023-05-16T01:28:23.339Z,90.52
2023-05-16T01:30:51.537Z,90.70
2023-05-16T01:33:18.019Z,90.95
2023-05-16T01:36:00.157Z,90.79
2023-05-16T01:38:38.702Z,90.26
2023-05-16T01:41:27.916Z,90.65
2023-05-16T01:44:01.989Z,90.84
2023-05-16T01:46:34.294Z,90.13
2023-05-16T01:49:23.685Z,90.38
2023-05-16T01:52:02.069Z,90.70
2023-05-16T01:54:32.069Z,90.71
2023-05-16T01:57:01.110Z,90.46
2023-05-16T01:59:28.351Z,90.58
2023-05-16T02:01:57.243Z,91.22
2023-05-16T02:04:24.375Z,90.67
2023-05-16T02:06:51.975Z,90.36
2023-05-16T02:09:18.694Z,90.43
2023-05-16T02:11:46.943Z,91.21
2023-05-16T02:14:13.517Z,91.33
2023-05-16T02:16:40.002Z,91.41
2023-05-16T02:19:06.523Z,91.72
2023-05-16T02:21:32.984Z,92.04
2023-05-16T02:23:59.520Z,92.36
2023-05-16T02:26:26.070Z,92.29
2023-05-16T02:28:52.778Z,92.32
2023-05-16T02:31:29.919Z,91.91
2023-05-16T02:33:58.301Z,92.17
2023-05-16T02:36:25.592Z,92.11
2023-05-16T02:38:52.070Z,92.67
2023-05-16T02:41:18.870Z,92.20
2023-05-16T02:43:47.012Z,92.29
2023-05-16T02:46:22.928Z,92.72
2023-05-16T02:48:50.602Z,93.01
2023-05-16T02:51:17.156Z,93.05
2023-05-16T02:53:43.824Z,93.09
2023-05-16T02:56:10.991Z,92.58
2023-05-16T02:58:37.516Z,93.14
2023-05-16T03:01:04.071Z,93.29
2023-05-16T03:03:30.758Z,92.89
2023-05-16T03:05:57.268Z,93.01
2023-05-16T03:08:23.694Z,93.60
2023-05-16T03:10:50.136Z,93.21
2023-05-16T03:13:16.650Z,93.67
2023-05-16T03:15:43.222Z,93.41
2023-05-16T03:18:09.697Z,93.09
2023-05-16T03:20:36.206Z,93.43
2023-05-16T03:23:02.720Z,93.52
2023-05-16T03:25:29.321Z,93.84
2023-05-16T03:27:56.107Z,93.92
2023-05-16T03:30:23.082Z,93.43
2023-05-16T03:32:49.593Z,93.81
2023-05-16T03:35:16.120Z,93.99
2023-05-16T03:37:42.657Z,93.70
2023-05-16T03:40:09.502Z,93.82
2023-05-16T03:42:35.948Z,93.98
2023-05-16T03:45:02.750Z,94.32
2023-05-16T03:47:31.360Z,93.22
2023-05-16T03:49:58.068Z,93.49
2023-05-16T03:52:24.898Z,93.29
2023-05-16T03:54:51.407Z,93.39
2023-05-16T03:57:17.829Z,93.28
2023-05-16T03:59:44.312Z,93.39
2023-05-16T04:02:10.973Z,93.38
2023-05-16T04:04:37.455Z,93.50
2023-05-16T04:07:04.199Z,93.77
2023-05-16T04:09:30.850Z,93.60
2023-05-16T04:11:57.617Z,93.62
2023-05-16T04:14:24.271Z,93.18
2023-05-16T04:16:51.632Z,93.41
2023-05-16T04:19:18.204Z,93.79
2023-05-16T04:21:44.772Z,93.57
2023-05-16T04:24:11.338Z,93.46
2023-05-16T04:26:37.759Z,93.30
2023-05-16T04:29:04.453Z,93.44
2023-05-16T04:31:31.191Z,93.17
2023-05-16T04:33:58.081Z,93.47
2023-05-16T04:36:24.517Z,93.17
2023-05-16T04:38:51.017Z,93.44
2023-05-16T04:41:17.511Z,93.34
2023-05-16T04:43:44.424Z,93.42
2023-05-16T04:46:10.909Z,93.33
2023-05-16T04:48:37.445Z,93.15
2023-05-16T04:51:04.183Z,93.10
2023-05-16T04:53:30.823Z,92.57
2023-05-16T04:55:57.398Z,93.01
2023-05-16T04:58:24.280Z,93.08
2023-05-16T05:00:55.696Z,92.79
2023-05-16T05:03:22.335Z,92.73
2023-05-16T05:05:48.902Z,92.75
2023-05-16T05:08:15.393Z,92.79
2023-05-16T05:10:41.941Z,92.31
2023-05-16T05:13:08.485Z,92.35
2023-05-16T05:15:34.907Z,92.24
2023-05-16T05:18:01.623Z,92.19
2023-05-16T05:20:28.497Z,92.46
2023-05-16T05:22:54.970Z,91.76
2023-05-16T05:25:21.531Z,92.17
2023-05-16T05:27:48.114Z,91.75
2023-05-16T05:30:14.627Z,91.49
2023-05-16T05:32:41.334Z,91.36
2023-05-16T05:35:07.954Z,91.13
2023-05-16T05:37:34.515Z,91.35
2023-05-16T05:40:01.007Z,91.00
2023-05-16T05:42:27.490Z,90.68
2023-05-16T05:44:54.058Z,90.45
2023-05-16T05:47:20.678Z,90.65
2023-05-16T05:49:47.511Z,90.42
2023-05-16T05:52:15.135Z,89.77
2023-05-16T05:54:41.669Z,88.78
2023-05-16T05:57:08.087Z,88.52
2023-05-16T05:59:34.568Z,88.53
2023-05-16T06:02:01.201Z,89.01
2023-05-16T06:04:27.793Z,87.75
2023-05-16T06:06:54.363Z,87.46
2023-05-16T06:09:21.837Z,87.23
2023-05-16T06:11:48.401Z,86.57
2023-05-16T06:14:16.144Z,86.48
2023-05-16T06:16:43.126Z,85.88
2023-05-16T06:19:10.350Z,84.54
2023-05-16T06:21:37.430Z,84.83
2023-05-16T06:24:04.037Z,83.32
2023-05-16T06:26:30.596Z,83.30
2023-05-16T06:28:57.070Z,82.94
2023-05-16T06:31:23.627Z,82.54
2023-05-16T06:33:50.123Z,82.26
2023-05-16T06:36:16.600Z,82.16
2023-05-16T06:38:43.141Z,81.44
2023-05-16T06:41:09.650Z,80.90
2023-05-16T06:43:36.494Z,81.08
2023-05-16T06:46:03.909Z,80.94
2023-05-16T06:48:30.746Z,81.14
2023-05-16T06:50:57.702Z,80.68
2023-05-16T06:53:24.305Z,80.40
2023-05-16T06:55:51.289Z,80.84
2023-05-16T06:58:17.826Z,80.69
2023-05-16T07:00:44.380Z,78.60
2023-05-16T07:03:11.405Z,77.92
2023-05-16T07:05:37.981Z,78.92
2023-05-16T07:08:07.628Z,78.03
2023-05-16T07:10:34.630Z,78.00
2023-05-16T07:13:01.712Z,78.32
2023-05-16T07:15:28.477Z,77.74
2023-05-16T07:17:55.213Z,78.14
2023-05-16T07:20:22.075Z,77.21
2023-05-16T07:22:48.778Z,76.94
2023-05-16T07:25:16.130Z,77.44
2023-05-16T07:27:44.810Z,75.65
2023-05-16T07:30:13.132Z,74.79
2023-05-16T07:32:40.046Z,73.71
2023-05-16T07:35:07.148Z,71.61
2023-05-16T07:37:33.959Z,71.47
2023-05-16T07:40:00.581Z,70.46
2023-05-16T07:42:27.375Z,70.48
2023-05-16T07:44:53.904Z,72.08
2023-05-16T07:47:20.527Z,70.89
2023-05-16T07:49:47.102Z,71.17
2023-05-16T07:52:13.634Z,71.41
2023-05-16T07:54:40.198Z,70.99
2023-05-16T07:57:07.426Z,69.99
2023-05-16T07:59:34.122Z,69.86
2023-05-16T08:02:00.707Z,70.10
2023-05-16T08:04:27.285Z,71.13
2023-05-16T08:06:53.772Z,70.16
2023-05-16T08:09:20.753Z,68.54
2023-05-16T08:11:47.297Z,69.16
2023-05-16T08:14:13.846Z,67.64
2023-05-16T08:16:40.477Z,67.17
2023-05-16T08:19:07.460Z,66.05
2023-05-16T08:21:34.148Z,66.46
2023-05-16T08:24:00.674Z,65.60
2023-05-16T08:26:27.261Z,66.01
2023-05-16T08:28:53.815Z,66.89
2023-05-16T08:31:21.206Z,66.90
2023-05-16T08:33:47.776Z,67.75
2023-05-16T08:36:15.879Z,67.18
2023-05-16T08:38:42.435Z,68.22
2023-05-16T08:41:08.958Z,65.51
2023-05-16T08:43:36.687Z,66.37
2023-05-16T08:46:03.331Z,66.42
2023-05-16T08:48:33.068Z,65.84
2023-05-16T08:51:02.635Z,63.99
2023-05-16T08:53:45.122Z,62.88
2023-05-16T08:56:13.482Z,62.50
2023-05-16T08:58:40.583Z,62.41
2023-05-16T09:01:09.332Z,61.59
2023-05-16T09:03:40.584Z,63.12
2023-05-16T09:06:08.445Z,62.45
2023-05-16T09:08:35.144Z,61.14
2023-05-16T09:11:02.550Z,60.57
2023-05-16T09:13:29.101Z,58.02
2023-05-16T09:16:19.432Z,59.81
2023-05-16T09:18:58.527Z,58.69
2023-05-16T09:21:34.167Z,59.31
2023-05-16T09:24:08.567Z,59.90
2023-05-16T09:26:39.188Z,60.36
2023-05-16T09:29:12.564Z,61.22
2023-05-16T09:31:39.881Z,58.83
2023-05-16T09:34:12.194Z,60.53
2023-05-16T09:36:39.449Z,58.79
2023-05-16T09:39:07.656Z,53.95
2023-05-16T09:41:35.822Z,53.36
2023-05-16T09:44:06.565Z,53.70
2023-05-16T09:46:35.137Z,55.90
2023-05-16T09:49:02.644Z,55.78
2023-05-16T09:51:29.195Z,54.91
2023-05-16T09:53:58.959Z,53.33
2023-05-16T09:56:25.483Z,55.95
2023-05-16T09:58:52.522Z,56.19
2023-05-16T10:01:19.588Z,58.36
2023-05-16T10:03:46.206Z,57.03
2023-05-16T10:06:13.899Z,55.21
2023-05-16T10:08:43.035Z,56.20
2023-05-16T10:11:10.890Z,54.78
2023-05-16T10:13:39.057Z,50.02
2023-05-16T10:16:12.419Z,49.48
2023-05-16T10:18:40.571Z,51.16
2023-05-16T10:21:16.280Z,52.25
2023-05-16T10:23:44.231Z,53.52
2023-05-16T10:26:14.123Z,54.35
2023-05-16T10:28:41.619Z,54.96
2023-05-16T10:31:09.911Z,51.20
2023-05-16T10:33:37.043Z,51.39
2023-05-16T10:36:05.527Z,51.53
2023-05-16T10:38:32.578Z,51.69
2023-05-16T10:40:59.164Z,54.06
2023-05-16T10:43:31.013Z,54.27
2023-05-16T10:46:02.456Z,54.00
2023-05-16T10:48:37.777Z,54.15
2023-05-16T10:51:24.212Z,52.13
2023-05-16T10:53:55.398Z,52.38
2023-05-16T10:56:26.773Z,53.00
2023-05-16T10:58:54.512Z,50.04
2023-05-16T11:01:26.932Z,50.78
2023-05-16T11:03:57.200Z,51.16
2023-05-16T11:06:34.728Z,51.43
2023-05-16T11:09:10.544Z,52.56
2023-05-16T11:11:52.422Z,51.51
2023-05-16T11:14:26.649Z,50.06
2023-05-16T11:17:13.781Z,50.82
2023-05-16T11:19:52.790Z,50.79
2023-05-16T11:22:19.339Z,51.49
2023-05-16T11:24:53.497Z,49.86
2023-05-16T11:27:28.232Z,49.46
2023-05-16T11:30:00.341Z,50.77
2023-05-16T11:32:30.254Z,51.27
2023-05-16T11:34:58.234Z,50.18
2023-05-16T11:37:24.864Z,51.27
2023-05-16T11:39:52.093Z,51.68
2023-05-16T11:42:18.743Z,52.82
2023-05-16T11:44:45.815Z,50.93
2023-05-16T11:47:13.391Z,50.95
2023-05-16T11:49:41.424Z,51.68
2023-05-16T11:52:09.626Z,52.08
2023-05-16T11:54:36.493Z,51.78
2023-05-16T11:57:03.320Z,51.38
2023-05-16T11:59:30.656Z,51.89
2023-05-16T12:01:57.234Z,52.08
2023-05-16T12:04:24.022Z,52.82
2023-05-16T12:07:00.630Z,53.19
2023-05-16T12:09:27.459Z,52.54
2023-05-16T12:11:54.019Z,53.44
2023-05-16T12:14:21.194Z,52.40
2023-05-16T12:16:49.430Z,52.32
2023-05-16T12:19:16.478Z,51.74
2023-05-16T12:21:43.181Z,51.86
2023-05-16T12:24:12.139Z,53.04
2023-05-16T12:26:41.365Z,52.52
2023-05-16T12:29:08.120Z,53.97
2023-05-16T12:31:39.918Z,52.80
2023-05-16T12:34:15.986Z,52.40
2023-05-16T12:36:43.425Z,51.04
2023-05-16T12:39:12.933Z,52.33
2023-05-16T12:41:43.373Z,52.93
2023-05-16T12:44:17.133Z,53.40
2023-05-16T12:46:46.147Z,55.15
2023-05-16T12:49:13.741Z,53.05
2023-05-16T12:51:41.029Z,53.97
2023-05-16T12:54:12.195Z,52.52
2023-05-16T12:56:42.103Z,51.16
2023-05-16T12:59:08.758Z,52.09
2023-05-16T13:01:36.173Z,52.42
2023-05-16T13:04:03.111Z,53.92
2023-05-16T13:06:36.999Z,54.56
2023-05-16T13:09:15.886Z,54.03
2023-05-16T13:11:42.432Z,54.76
2023-05-16T13:14:08.995Z,56.56
2023-05-16T13:16:35.728Z,56.40
2023-05-16T13:19:02.812Z,56.76
2023-05-16T13:21:31.733Z,56.46
2023-05-16T13:23:59.166Z,54.80
2023-05-16T13:26:26.658Z,55.58
2023-05-16T13:28:54.947Z,55.48
2023-05-16T13:31:22.626Z,56.27
2023-05-16T13:33:49.271Z,56.81
2023-05-16T13:36:15.861Z,55.59
2023-05-16T13:38:42.739Z,55.59
2023-05-16T13:41:09.289Z,54.92
2023-05-16T13:43:35.784Z,55.70
2023-05-16T13:46:02.346Z,55.61
2023-05-16T13:48:28.893Z,56.81
2023-05-16T13:50:55.969Z,56.59
2023-05-16T13:53:23.352Z,56.63
2023-05-16T13:55:49.880Z,56.57
2023-05-16T13:58:16.438Z,57.10
2023-05-16T14:00:46.305Z,56.49
2023-05-16T14:03:13.271Z,56.47
2023-05-16T14:05:40.106Z,56.90
2023-05-16T14:08:06.800Z,56.63
2023-05-16T14:10:33.305Z,57.43
2023-05-16T14:12:59.891Z,56.09
2023-05-16T14:15:26.973Z,55.84
2023-05-16T14:17:53.964Z,58.66
2023-05-16T14:20:20.729Z,56.08
2023-05-16T14:22:47.690Z,55.90
2023-05-16T14:25:14.407Z,55.57
2023-05-16T14:27:41.458Z,56.10
2023-05-16T14:30:09.599Z,56.13
2023-05-16T14:32:36.371Z,54.33
2023-05-16T14:35:05.269Z,54.30
2023-05-16T14:37:32.051Z,54.33
2023-05-16T14:39:59.697Z,55.21
2023-05-16T14:42:26.516Z,52.68
2023-05-16T14:44:53.281Z,53.36
2023-05-16T14:47:19.885Z,54.42
2023-05-16T14:49:46.482Z,55.51
2023-05-16T14:52:13.072Z,54.49
2023-05-16T14:54:39.623Z,56.80
2023-05-16T14:57:06.892Z,56.76
2023-05-16T14:59:33.450Z,55.27
2023-05-16T15:02:00.073Z,55.23
2023-05-16T15:04:29.577Z,55.67
2023-05-16T15:06:56.216Z,55.07
2023-05-16T15:09:22.837Z,56.53
2023-05-16T15:11:49.327Z,55.76
2023-05-16T15:14:16.075Z,55.98
2023-05-16T15:16:42.959Z,56.24
2023-05-16T15:19:09.620Z,58.03
2023-05-16T15:21:36.344Z,55.13
2023-05-16T15:24:02.931Z,56.05
2023-05-16T15:26:29.558Z,55.71
2023-05-16T15:28:56.177Z,56.29
2023-05-16T15:31:22.966Z,54.85
2023-05-16T15:33:49.595Z,54.89
2023-05-16T15:36:16.237Z,53.93
2023-05-16T15:38:45.584Z,53.81
2023-05-16T15:41:19.786Z,53.63
2023-05-16T15:43:53.464Z,54.33
2023-05-16T15:46:20.148Z,53.46
2023-05-16T15:48:46.737Z,53.88
2023-05-16T15:51:13.680Z,54.47
2023-05-16T15:53:40.311Z,54.62
2023-05-16T15:56:07.958Z,54.66
2023-05-16T15:58:34.555Z,54.66
2023-05-16T16:01:01.128Z,55.23
2023-05-16T16:03:27.841Z,55.46
2023-05-16T16:05:54.423Z,56.16
2023-05-16T16:08:21.157Z,57.22
2023-05-16T16:10:47.782Z,57.06
2023-05-16T16:13:14.333Z,57.95
2023-05-16T16:15:42.245Z,58.21
2023-05-16T16:18:09.342Z,57.89
2023-05-16T16:20:35.934Z,58.11
2023-05-16T16:23:02.573Z,58.47
2023-05-16T16:25:29.369Z,58.18
2023-05-16T16:27:56.489Z,59.09
2023-05-16T16:30:23.150Z,59.47
2023-05-16T16:32:49.684Z,59.46
2023-05-16T16:35:16.302Z,59.65
2023-05-16T16:37:48.734Z,59.88
2023-05-16T16:40:21.310Z,60.53
2023-05-16T16:42:47.818Z,61.14
2023-05-16T16:45:14.401Z,61.46
2023-05-16T16:47:41.070Z,61.83
2023-05-16T16:50:08.371Z,63.20
2023-05-16T16:52:35.433Z,63.26
2023-05-16T16:55:02.038Z,63.84
2023-05-16T16:57:28.641Z,66.04
2023-05-16T16:59:55.266Z,65.97
2023-05-16T17:02:22.240Z,66.29
2023-05-16T17:04:48.840Z,66.42
2023-05-16T17:07:15.355Z,66.31
2023-05-16T17:09:42.999Z,67.06
2023-05-16T17:12:18.636Z,67.30
2023-05-16T17:14:49.890Z,67.96
2023-05-16T17:17:17.819Z,68.42
2023-05-16T17:19:47.023Z,68.71
2023-05-16T17:22:13.961Z,69.56
2023-05-16T17:24:40.547Z,69.54
2023-05-16T17:27:07.137Z,70.08
2023-05-16T17:29:33.702Z,70.54
2023-05-16T17:32:00.281Z,70.75
2023-05-16T17:34:27.224Z,71.19
2023-05-16T17:36:54.075Z,71.09
2023-05-16T17:39:20.840Z,71.76
2023-05-16T17:41:47.580Z,71.93
2023-05-16T17:44:14.132Z,71.84
2023-05-16T17:46:40.654Z,71.83
2023-05-16T17:49:08.049Z,72.10
2023-05-16T17:51:52.239Z,72.47
2023-05-16T17:54:19.711Z,72.47
2023-05-16T17:56:47.156Z,71.32
2023-05-16T17:59:14.351Z,71.62
2023-05-16T18:01:41.916Z,71.08
2023-05-16T18:04:08.570Z,71.30
2023-05-16T18:06:37.675Z,71.75
2023-05-16T18:09:07.376Z,71.16
2023-05-16T18:11:35.173Z,71.07
2023-05-16T18:14:02.365Z,70.52
2023-05-16T18:16:30.066Z,70.15
2023-05-16T18:18:57.947Z,70.70
2023-05-16T18:21:24.768Z,70.22
2023-05-16T18:23:51.780Z,70.52
2023-05-16T18:26:19.343Z,70.49
2023-05-16T18:28:46.069Z,70.92
2023-05-16T18:31:12.696Z,71.02
2023-05-16T18:33:39.414Z,70.18
2023-05-16T18:36:06.369Z,69.40
2023-05-16T18:38:35.433Z,70.39
2023-05-16T18:41:02.243Z,69.82
2023-05-16T18:43:29.108Z,70.03
2023-05-16T18:45:55.789Z,69.84
2023-05-16T18:48:22.446Z,69.57
2023-05-16T18:50:49.112Z,70.26
2023-05-16T18:53:15.681Z,70.22
2023-05-16T18:55:42.314Z,70.56
2023-05-16T18:58:09.005Z,71.00
2023-05-16T19:00:35.789Z,70.92
2023-05-16T19:03:02.323Z,71.26
2023-05-16T19:05:28.937Z,71.39
2023-05-16T19:07:55.754Z,72.36
2023-05-16T19:10:22.364Z,72.32
2023-05-16T19:12:49.264Z,72.79
2023-05-16T19:15:16.067Z,72.42
2023-05-16T19:17:43.018Z,73.23
2023-05-16T19:20:10.854Z,73.38
2023-05-16T19:22:37.664Z,73.34
2023-05-16T19:25:05.092Z,73.88
2023-05-16T19:27:31.962Z,73.94
2023-05-16T19:29:58.474Z,74.89
2023-05-16T19:32:25.372Z,75.11
2023-05-16T19:34:52.275Z,75.27
2023-05-16T19:37:18.942Z,75.83
2023-05-16T19:39:45.471Z,76.03
2023-05-16T19:42:12.010Z,75.80
2023-05-16T19:44:38.527Z,75.92
2023-05-16T19:47:05.390Z,75.87
2023-05-16T19:49:32.075Z,76.56
2023-05-16T19:51:58.769Z,76.13
2023-05-16T19:54:25.708Z,76.76
2023-05-16T19:56:52.238Z,77.01
2023-05-16T19:59:18.825Z,77.05
2023-05-16T20:01:45.948Z,77.49
2023-05-16T20:04:12.731Z,77.81
2023-05-16T20:06:39.601Z,77.75
2023-05-16T20:09:06.328Z,77.90
2023-05-16T20:11:33.123Z,78.06
2023-05-16T20:14:00.232Z,78.06
2023-05-16T20:16:27.458Z,78.24
2023-05-16T20:18:54.305Z,78.78
2023-05-16T20:21:21.089Z,78.75
2023-05-16T20:23:47.943Z,78.81
2023-05-16T20:26:15.203Z,78.81
2023-05-16T20:28:42.085Z,79.83
2023-05-16T20:31:08.782Z,79.56
2023-05-16T20:33:35.621Z,80.12
2023-05-16T20:36:02.376Z,79.79
2023-05-16T20:38:28.910Z,80.29
2023-05-16T20:40:55.783Z,80.22
2023-05-16T20:43:22.580Z,80.38
2023-05-16T20:45:49.831Z,80.12
2023-05-16T20:48:16.387Z,80.85
2023-05-16T20:50:43.038Z,81.06
2023-05-16T20:53:09.568Z,81.14
2023-05-16T20:55:36.062Z,80.62
2023-05-16T20:58:02.721Z,80.78
2023-05-16T21:00:29.447Z,81.12
2023-05-16T21:02:56.181Z,81.23
2023-05-16T21:05:25.649Z,81.82
2023-05-16T21:07:52.968Z,82.19
2023-05-16T21:10:19.521Z,82.01
2023-05-16T21:12:46.004Z,82.53
2023-05-16T21:15:12.628Z,82.68
2023-05-16T21:17:40.878Z,82.61
2023-05-16T21:20:08.377Z,82.22
2023-05-16T21:22:36.037Z,82.17
2023-05-16T21:25:02.984Z,82.58
2023-05-16T21:27:29.511Z,82.36
2023-05-16T21:29:56.016Z,82.84
2023-05-16T21:32:22.516Z,82.91
2023-05-16T21:34:49.055Z,82.65
2023-05-16T21:37:16.822Z,83.12
2023-05-16T21:39:43.337Z,83.08
2023-05-16T21:42:09.833Z,83.55
2023-05-16T21:44:36.856Z,83.72
2023-05-16T21:47:03.804Z,83.97
2023-05-16T21:49:30.333Z,84.17
2023-05-16T21:51:56.918Z,84.31
2023-05-16T21:54:23.404Z,84.34
2023-05-16T21:56:49.917Z,84.89
2023-05-16T21:59:16.450Z,84.94
2023-05-16T22:01:43.049Z,85.49
2023-05-16T22:04:09.697Z,86.09
2023-05-16T22:06:36.305Z,85.76
2023-05-16T22:09:02.833Z,86.60
2023-05-16T22:11:29.386Z,86.80
2023-05-16T22:13:56.186Z,87.47
2023-05-16T22:16:22.726Z,87.66
2023-05-16T22:18:49.482Z,87.41
2023-05-16T22:21:16.377Z,87.65
2023-05-16T22:23:42.950Z,87.65
2023-05-16T22:26:09.516Z,87.49
2023-05-16T22:28:36.071Z,87.85
2023-05-16T22:31:02.633Z,87.95
2023-05-16T22:33:29.174Z,88.10
2023-05-16T22:35:56.172Z,87.80
2023-05-16T22:38:22.681Z,87.41
2023-05-16T22:40:49.295Z,88.42
2023-05-16T22:43:15.857Z,88.70
2023-05-16T22:45:42.401Z,89.07
2023-05-16T22:48:09.029Z,89.31
2023-05-16T22:50:35.706Z,89.83
2023-05-16T22:53:02.198Z,89.67
2023-05-16T22:55:29.591Z,89.90
2023-05-16T22:57:58.363Z,90.14
2023-05-16T23:00:24.944Z,90.44
2023-05-16T23:02:51.891Z,90.44
2023-05-16T23:05:18.568Z,90.29
2023-05-16T23:07:45.070Z,90.74
2023-05-16T23:10:11.652Z,91.14
2023-05-16T23:12:38.209Z,91.26
2023-05-16T23:15:09.825Z,91.31
2023-05-16T23:17:40.812Z,91.74
2023-05-16T23:20:07.941Z,91.65
2023-05-16T23:22:34.499Z,91.86
2023-05-16T23:25:01.038Z,91.79
2023-05-16T23:27:27.615Z,92.19
2023-05-16T23:29:54.170Z,92.04
2023-05-16T23:32:20.940Z,92.14
2023-05-16T23:34:47.497Z,92.35
2023-05-16T23:37:14.575Z,92.21
2023-05-16T23:39:41.134Z,92.42
2023-05-16T23:42:07.794Z,92.39
2023-05-16T23:44:34.949Z,92.59
2023-05-16T23:47:01.450Z,92.76
2023-05-16T23:49:27.951Z,92.76
2023-05-16T23:51:57.954Z,92.67
2023-05-16T23:54:26.019Z,93.05
2023-05-16T23:56:52.711Z,93.22
2023-05-16T23:59:19.308Z,93.04
